Terminal Aerodrome Forecast
Issued by NWS

Home | Current Version | Previous Version | Text Only | Print | Product List | Glossary On
Versions: 1 2 3 4 5 6 7 8 9 10 11 12 13 14 15 16 17 18 19 20
978
FTUS42 KTAE 181729
TAFVLD
TAF
KVLD 181729Z 1818/1918 27006KT P6SM SCT050
     FM190300 00000KT 3SM BR SCT002
     FM190700 00000KT 1/4SM FG BKN002
     FM191500 18004KT P6SM SCT002 BKN040=

USA.gov is the U.S. government's official web portal to all federal, state and local government web resources and services.